createdAt,value
2017-09-08T00:02:23.624Z,100460
2017-09-08T00:04:49.858Z,100449
2017-09-08T00:07:16.125Z,100449
2017-09-08T00:09:42.348Z,100450
2017-09-08T00:12:09.320Z,100449
2017-09-08T00:14:35.577Z,100451
2017-09-08T00:17:02.643Z,100448
2017-09-08T00:19:28.869Z,100455
2017-09-08T00:21:55.112Z,100444
2017-09-08T00:24:22.090Z,100444
2017-09-08T00:26:48.318Z,100445
2017-09-08T00:29:14.706Z,100450
2017-09-08T00:31:40.934Z,100447
2017-09-08T00:34:07.949Z,100441
2017-09-08T00:36:34.490Z,100438
2017-09-08T00:39:00.748Z,100429
2017-09-08T00:41:27.722Z,100426
2017-09-08T00:43:54.008Z,100426
2017-09-08T00:46:20.260Z,100421
2017-09-08T00:48:47.242Z,100423
2017-09-08T00:51:13.518Z,100419
2017-09-08T00:53:40.529Z,100427
2017-09-08T00:56:06.830Z,100417
2017-09-08T00:58:33.073Z,100415
2017-09-08T01:00:59.305Z,100412
2017-09-08T01:03:25.574Z,100412
2017-09-08T01:05:51.838Z,100404
2017-09-08T01:08:18.813Z,100401
2017-09-08T01:10:45.080Z,100398
2017-09-08T01:13:11.334Z,100385
2017-09-08T01:15:37.583Z,100385
2017-09-08T01:18:03.857Z,100387
2017-09-08T01:20:30.077Z,100382
2017-09-08T01:23:02.546Z,100376
2017-09-08T01:25:28.789Z,100374
2017-09-08T01:27:55.002Z,100371
2017-09-08T01:30:21.247Z,100370
2017-09-08T01:32:47.505Z,100374
2017-09-08T01:35:13.738Z,100364
2017-09-08T01:37:40.005Z,100355
2017-09-08T01:40:06.350Z,100354
2017-09-08T01:42:32.599Z,100352
2017-09-08T01:44:58.809Z,100347
2017-09-08T01:47:25.043Z,100339
2017-09-08T01:49:51.268Z,100338
2017-09-08T01:52:17.517Z,100332
2017-09-08T01:54:43.738Z,100326
2017-09-08T01:57:09.964Z,100319
2017-09-08T01:59:36.227Z,100315
2017-09-08T02:02:02.483Z,100312
2017-09-08T02:04:28.701Z,100317
2017-09-08T02:06:54.966Z,100314
2017-09-08T02:09:21.185Z,100312
2017-09-08T02:11:47.393Z,100309
2017-09-08T02:14:13.850Z,100302
2017-09-08T02:16:40.074Z,100299
2017-09-08T02:19:06.291Z,100294
2017-09-08T02:21:38.610Z,100295
2017-09-08T02:24:05.574Z,100294
2017-09-08T02:26:31.864Z,100291
2017-09-08T02:28:58.110Z,100286
2017-09-08T02:31:24.348Z,100281
2017-09-08T02:33:51.310Z,100277
2017-09-08T02:36:17.895Z,100271
2017-09-08T02:38:44.125Z,100272
2017-09-08T02:41:10.357Z,100269
2017-09-08T02:43:36.774Z,100261
2017-09-08T02:46:03.003Z,100257
2017-09-08T02:48:29.235Z,100256
2017-09-08T02:50:55.481Z,100249
2017-09-08T02:53:21.734Z,100249
2017-09-08T02:55:47.969Z,100247
2017-09-08T02:58:14.206Z,100242
2017-09-08T03:00:40.430Z,100239
2017-09-08T03:03:06.666Z,100231
2017-09-08T03:05:32.914Z,100230
2017-09-08T03:07:59.126Z,100228
2017-09-08T03:10:25.350Z,100220
2017-09-08T03:12:51.592Z,100219
2017-09-08T03:15:17.820Z,100225
2017-09-08T03:17:44.029Z,100220
2017-09-08T03:20:10.391Z,100216
2017-09-08T03:22:36.605Z,100210
2017-09-08T03:25:02.843Z,100200
2017-09-08T03:27:29.112Z,100197
2017-09-08T03:29:56.116Z,100199
2017-09-08T03:32:22.328Z,100192
2017-09-08T03:34:48.577Z,100185
2017-09-08T03:37:14.784Z,100182
2017-09-08T03:39:41.001Z,100180
2017-09-08T03:42:07.254Z,100178
2017-09-08T03:44:33.480Z,100173
2017-09-08T03:46:59.697Z,100169
2017-09-08T03:49:25.926Z,100157
2017-09-08T03:51:52.154Z,100152
2017-09-08T03:54:18.410Z,100145
2017-09-08T03:56:44.634Z,100145
2017-09-08T03:59:10.860Z,100129
2017-09-08T04:01:37.139Z,100125
2017-09-08T04:04:04.132Z,100126
2017-09-08T04:06:30.360Z,100120
2017-09-08T04:08:56.609Z,100112
2017-09-08T04:11:22.847Z,100107
2017-09-08T04:13:49.097Z,100108
2017-09-08T04:16:16.365Z,100107
2017-09-08T04:18:42.617Z,100109
2017-09-08T04:21:08.837Z,100107
2017-09-08T04:23:35.402Z,100100
2017-09-08T04:26:01.642Z,100094
2017-09-08T04:28:27.891Z,100082
2017-09-08T04:30:54.874Z,100083
2017-09-08T04:33:21.099Z,100076
2017-09-08T04:35:47.314Z,100071
2017-09-08T04:38:13.583Z,100068
2017-09-08T04:40:39.833Z,100062
2017-09-08T04:43:06.069Z,100059
2017-09-08T04:45:32.675Z,100056
2017-09-08T04:47:59.650Z,100056
2017-09-08T04:50:25.893Z,100051
2017-09-08T04:52:52.142Z,100055
2017-09-08T04:55:18.363Z,100049
2017-09-08T04:57:44.590Z,100046
2017-09-08T05:00:10.842Z,100041
2017-09-08T05:02:37.094Z,100038
2017-09-08T05:05:03.332Z,100038
2017-09-08T05:07:29.578Z,100032
2017-09-08T05:09:55.804Z,100033
2017-09-08T05:12:22.026Z,100029
2017-09-08T05:14:48.309Z,100027
2017-09-08T05:17:14.525Z,100024
2017-09-08T05:19:40.742Z,100029
2017-09-08T05:22:07.766Z,100017
2017-09-08T05:24:34.730Z,100010
2017-09-08T05:27:01.713Z,100006
2017-09-08T05:29:27.937Z,99999
2017-09-08T05:31:54.160Z,99992
2017-09-08T05:34:20.399Z,99990
2017-09-08T05:36:46.618Z,99988
2017-09-08T05:39:12.836Z,99984
2017-09-08T05:41:39.100Z,99991
2017-09-08T05:44:05.326Z,99984
2017-09-08T05:46:31.551Z,99991
2017-09-08T05:48:57.906Z,99985
2017-09-08T05:51:24.135Z,99977
2017-09-08T05:53:50.371Z,99972
2017-09-08T05:56:16.745Z,99975
2017-09-08T05:58:43.352Z,99968
2017-09-08T06:01:09.583Z,99977
2017-09-08T06:03:36.027Z,99968
2017-09-08T06:06:02.303Z,99966
2017-09-08T06:08:28.937Z,99970
2017-09-08T06:10:55.205Z,99959
2017-09-08T06:13:22.203Z,99959
2017-09-08T06:15:48.621Z,99956
2017-09-08T06:18:14.846Z,99954
2017-09-08T06:20:41.302Z,99946
2017-09-08T06:23:07.528Z,99940
2017-09-08T06:25:33.792Z,99930
2017-09-08T06:28:01.001Z,99937
2017-09-08T06:30:27.362Z,99929
2017-09-08T06:32:53.788Z,99935
2017-09-08T06:35:20.027Z,99931
2017-09-08T06:37:46.504Z,99924
2017-09-08T06:40:12.761Z,99920
2017-09-08T06:42:39.100Z,99922
2017-09-08T06:45:05.345Z,99911
2017-09-08T06:47:31.620Z,99906
2017-09-08T06:49:57.832Z,99911
2017-09-08T06:52:24.077Z,99910
2017-09-08T06:54:50.342Z,99910
2017-09-08T06:57:16.564Z,99905
2017-09-08T06:59:42.822Z,99902
2017-09-08T07:02:11.048Z,99896
2017-09-08T07:04:38.188Z,99898
2017-09-08T07:07:04.487Z,99896
2017-09-08T07:09:30.738Z,99897
2017-09-08T07:11:56.962Z,99882
2017-09-08T07:14:23.340Z,99882
2017-09-08T07:16:49.583Z,99879
2017-09-08T07:19:16.154Z,99877
2017-09-08T07:21:42.380Z,99871
2017-09-08T07:24:09.722Z,99870
2017-09-08T07:26:36.963Z,99866
2017-09-08T07:29:03.944Z,99868
2017-09-08T07:31:32.307Z,99870
2017-09-08T07:33:59.525Z,99867
2017-09-08T07:36:28.362Z,99858
2017-09-08T07:38:55.989Z,99853
2017-09-08T07:41:23.148Z,99859
2017-09-08T07:43:51.061Z,99848
2017-09-08T07:46:17.289Z,99847
2017-09-08T07:48:43.752Z,99854
2017-09-08T07:51:10.054Z,99851
2017-09-08T07:53:36.477Z,99854
2017-09-08T07:56:02.737Z,99840
2017-09-08T07:58:28.967Z,99837
2017-09-08T08:00:55.182Z,99833
2017-09-08T08:03:21.660Z,99832
2017-09-08T08:05:48.633Z,99837
2017-09-08T08:08:14.866Z,99837
2017-09-08T08:10:41.146Z,99831
2017-09-08T08:13:07.381Z,99841
2017-09-08T08:15:34.364Z,99831
2017-09-08T08:18:00.618Z,99840
2017-09-08T08:20:26.826Z,99847
2017-09-08T08:22:53.066Z,99841
2017-09-08T08:25:19.318Z,99832
2017-09-08T08:27:45.560Z,99823
2017-09-08T08:30:11.785Z,99819
2017-09-08T08:32:38.305Z,99817
2017-09-08T08:35:04.545Z,99815
2017-09-08T08:37:30.762Z,99805
2017-09-08T08:39:57.022Z,99805
2017-09-08T08:42:24.008Z,99800
2017-09-08T08:44:50.253Z,99791
2017-09-08T08:47:16.686Z,99787
2017-09-08T08:49:42.906Z,99772
2017-09-08T08:52:09.149Z,99778
2017-09-08T08:54:35.582Z,99780
2017-09-08T08:57:01.810Z,99782
2017-09-08T08:59:28.026Z,99775
2017-09-08T09:01:54.282Z,99768
2017-09-08T09:04:20.510Z,99771
2017-09-08T09:06:46.730Z,99766
2017-09-08T09:09:12.993Z,99768
2017-09-08T09:11:39.942Z,99761
2017-09-08T09:14:06.892Z,99752
2017-09-08T09:16:33.295Z,99756
2017-09-08T09:18:59.524Z,99749
2017-09-08T09:21:25.742Z,99744
2017-09-08T09:23:52.259Z,99738
2017-09-08T09:26:18.526Z,99745
2017-09-08T09:28:45.742Z,99733
2017-09-08T09:31:12.297Z,99731
2017-09-08T09:33:38.530Z,99731
2017-09-08T09:36:05.501Z,99726
2017-09-08T09:38:32.424Z,99721
2017-09-08T09:40:59.130Z,99727
2017-09-08T09:43:25.791Z,99718
2017-09-08T09:45:52.464Z,99712
2017-09-08T09:48:19.218Z,99708
2017-09-08T09:50:45.682Z,99708
2017-09-08T09:53:11.999Z,99705
2017-09-08T09:55:38.368Z,99713
2017-09-08T09:58:04.672Z,99705
2017-09-08T10:00:30.897Z,99701
2017-09-08T10:02:57.114Z,99706
2017-09-08T10:05:23.377Z,99701
2017-09-08T10:07:49.588Z,99706
2017-09-08T10:10:15.798Z,99695
2017-09-08T10:12:42.055Z,99684
2017-09-08T10:15:08.290Z,99680
2017-09-08T10:17:34.517Z,99681
2017-09-08T10:20:00.855Z,99677
2017-09-08T10:22:27.809Z,99673
2017-09-08T10:24:54.774Z,99666
2017-09-08T10:27:21.005Z,99670
2017-09-08T10:29:47.286Z,99669
2017-09-08T10:32:13.717Z,99663
2017-09-08T10:34:40.119Z,99661
2017-09-08T10:37:06.338Z,99655
2017-09-08T10:39:32.566Z,99664
2017-09-08T10:41:58.821Z,99668
2017-09-08T10:44:25.040Z,99661
2017-09-08T10:46:58.752Z,99668
2017-09-08T10:49:24.985Z,99662
2017-09-08T10:51:51.214Z,99658
2017-09-08T10:54:17.721Z,99653
2017-09-08T10:56:43.944Z,99656
2017-09-08T10:59:10.367Z,99642
2017-09-08T11:01:36.615Z,99644
2017-09-08T11:04:02.852Z,99641
2017-09-08T11:06:29.061Z,99654
2017-09-08T11:08:55.300Z,99661
2017-09-08T11:11:21.522Z,99665
2017-09-08T11:13:47.745Z,99666
2017-09-08T11:16:14.025Z,99663
2017-09-08T11:18:40.245Z,99662
2017-09-08T11:21:06.470Z,99660
2017-09-08T11:23:32.721Z,99661
2017-09-08T11:25:59.674Z,99657
2017-09-08T11:28:26.729Z,99648
2017-09-08T11:30:53.754Z,99651
2017-09-08T11:33:26.849Z,99658
2017-09-08T11:35:59.190Z,99665
2017-09-08T11:38:25.426Z,99662
2017-09-08T11:40:51.673Z,99667
2017-09-08T11:43:18.688Z,99663
2017-09-08T11:45:44.913Z,99665
2017-09-08T11:48:11.450Z,99668
2017-09-08T11:50:37.737Z,99668
2017-09-08T11:53:04.058Z,99662
2017-09-08T11:55:30.390Z,99661
2017-09-08T11:57:57.089Z,99675
2017-09-08T12:00:23.384Z,99667
2017-09-08T12:02:49.673Z,99662
2017-09-08T12:05:15.893Z,99649
2017-09-08T12:07:42.110Z,99654
2017-09-08T12:10:08.457Z,99654
2017-09-08T12:12:35.417Z,99646
2017-09-08T12:15:02.394Z,99656
2017-09-08T12:17:28.630Z,99655
2017-09-08T12:19:54.850Z,99658
2017-09-08T12:22:21.060Z,99668
2017-09-08T12:24:47.426Z,99663
2017-09-08T12:27:13.639Z,99669
2017-09-08T12:29:39.866Z,99668
2017-09-08T12:32:06.115Z,99658
2017-09-08T12:34:32.336Z,99657
2017-09-08T12:36:58.555Z,99650
2017-09-08T12:39:24.822Z,99646
2017-09-08T12:41:51.050Z,99657
2017-09-08T12:44:17.256Z,99653
2017-09-08T12:46:43.533Z,99654
2017-09-08T12:49:09.769Z,99661
2017-09-08T12:51:35.989Z,99661
2017-09-08T12:54:02.256Z,99652
2017-09-08T12:56:28.470Z,99646
2017-09-08T12:58:54.693Z,99653
2017-09-08T13:01:21.042Z,99649
2017-09-08T13:03:47.255Z,99646
2017-09-08T13:06:13.505Z,99652
2017-09-08T13:08:39.712Z,99652
2017-09-08T13:11:05.931Z,99646
2017-09-08T13:13:32.194Z,99650
2017-09-08T13:15:58.412Z,99656
2017-09-08T13:18:24.652Z,99652
2017-09-08T13:20:50.904Z,99649
2017-09-08T13:23:17.125Z,99652
2017-09-08T13:25:43.361Z,99651
2017-09-08T13:28:09.602Z,99649
2017-09-08T13:30:36.604Z,99651
2017-09-08T13:33:02.828Z,99643
2017-09-08T13:35:29.267Z,99638
2017-09-08T13:37:55.481Z,99638
2017-09-08T13:40:21.707Z,99632
2017-09-08T13:42:48.214Z,99629
2017-09-08T13:45:14.461Z,99629
2017-09-08T13:47:40.691Z,99631
2017-09-08T13:50:06.917Z,99623
2017-09-08T13:52:33.174Z,99623
2017-09-08T13:54:59.411Z,99617
2017-09-08T13:57:25.631Z,99621
2017-09-08T13:59:51.852Z,99615
2017-09-08T14:02:18.468Z,99613
2017-09-08T14:04:44.679Z,99605
2017-09-08T14:07:10.893Z,99613
2017-09-08T14:09:37.901Z,99619
2017-09-08T14:12:04.141Z,99620
2017-09-08T14:14:30.351Z,99617
2017-09-08T14:16:56.606Z,99612
2017-09-08T14:19:22.830Z,99614
2017-09-08T14:21:49.045Z,99611
2017-09-08T14:24:15.306Z,99611
2017-09-08T14:26:42.278Z,99609
2017-09-08T14:29:08.488Z,99606
2017-09-08T14:31:35.514Z,99599
2017-09-08T14:34:02.481Z,99601
2017-09-08T14:36:29.448Z,99598
2017-09-08T14:38:55.699Z,99592
2017-09-08T14:41:21.943Z,99591
2017-09-08T14:43:48.151Z,99594
2017-09-08T14:46:14.375Z,99591
2017-09-08T14:48:40.661Z,99595
2017-09-08T14:51:06.890Z,99592
2017-09-08T14:53:33.130Z,99589
2017-09-08T14:55:59.375Z,99588
2017-09-08T14:58:25.613Z,99582
2017-09-08T15:00:51.836Z,99591
2017-09-08T15:03:18.087Z,99590
2017-09-08T15:05:44.317Z,99589
2017-09-08T15:08:10.535Z,99595
2017-09-08T15:10:36.750Z,99584
2017-09-08T15:13:03.012Z,99590
2017-09-08T15:15:29.248Z,99578
2017-09-08T15:17:55.456Z,99588
2017-09-08T15:20:21.983Z,99594
2017-09-08T15:22:48.190Z,99593
2017-09-08T15:25:14.413Z,99593
2017-09-08T15:27:40.653Z,99590
2017-09-08T15:30:06.873Z,99589
2017-09-08T15:32:33.093Z,99592
2017-09-08T15:34:59.672Z,99589
2017-09-08T15:37:25.894Z,99591
2017-09-08T15:39:52.123Z,99585
2017-09-08T15:42:18.392Z,99583
2017-09-08T15:44:45.372Z,99586
2017-09-08T15:47:11.601Z,99589
2017-09-08T15:49:37.850Z,99586
2017-09-08T15:52:04.079Z,99582
2017-09-08T15:54:30.306Z,99578
2017-09-08T15:56:56.585Z,99577
2017-09-08T15:59:23.548Z,99578
2017-09-08T16:01:49.767Z,99575
2017-09-08T16:04:16.164Z,99568
2017-09-08T16:06:42.389Z,99574
2017-09-08T16:09:08.603Z,99568
2017-09-08T16:11:34.848Z,99569
2017-09-08T16:14:01.078Z,99574
2017-09-08T16:16:28.043Z,99571
2017-09-08T16:18:55.274Z,99568
2017-09-08T16:21:22.262Z,99567
2017-09-08T16:23:48.492Z,99563
2017-09-08T16:26:14.757Z,99561
2017-09-08T16:28:40.976Z,99564
2017-09-08T16:31:07.199Z,99557
2017-09-08T16:33:33.649Z,99552
2017-09-08T16:35:59.891Z,99547
2017-09-08T16:38:26.109Z,99548
2017-09-08T16:40:52.627Z,99549
2017-09-08T16:43:18.833Z,99550
2017-09-08T16:45:45.054Z,99549
2017-09-08T16:48:11.291Z,99548
2017-09-08T16:50:37.515Z,99543
2017-09-08T16:53:03.751Z,99547
2017-09-08T16:55:29.996Z,99546
2017-09-08T16:57:56.529Z,99544
2017-09-08T17:00:22.749Z,99543
2017-09-08T17:02:48.966Z,99540
2017-09-08T17:05:15.226Z,99531
2017-09-08T17:07:41.445Z,99525
2017-09-08T17:10:07.669Z,99525
2017-09-08T17:12:33.899Z,99521
2017-09-08T17:15:00.333Z,99518
2017-09-08T17:17:26.561Z,99515
2017-09-08T17:19:52.773Z,99518
2017-09-08T17:22:19.037Z,99521
2017-09-08T17:24:45.270Z,99507
2017-09-08T17:27:11.530Z,99506
2017-09-08T17:29:38.005Z,99505
2017-09-08T17:32:04.232Z,99503
2017-09-08T17:34:30.463Z,99502
2017-09-08T17:36:56.691Z,99506
2017-09-08T17:39:22.926Z,99508
2017-09-08T17:41:49.453Z,99507
2017-09-08T17:44:15.681Z,99504
2017-09-08T17:46:41.905Z,99505
2017-09-08T17:49:08.145Z,99502
2017-09-08T17:51:34.369Z,99505
2017-09-08T17:54:00.634Z,99503
2017-09-08T17:56:27.634Z,99508
2017-09-08T17:58:53.854Z,99504
2017-09-08T18:01:20.087Z,99503
2017-09-08T18:03:46.303Z,99505
2017-09-08T18:06:12.530Z,99501
2017-09-08T18:08:38.992Z,99502
2017-09-08T18:11:05.236Z,99501
2017-09-08T18:13:31.461Z,99501
2017-09-08T18:15:57.702Z,99506
2017-09-08T18:18:24.678Z,99504
2017-09-08T18:20:50.916Z,99504
2017-09-08T18:23:17.145Z,99500
2017-09-08T18:25:43.390Z,99499
2017-09-08T18:28:09.644Z,99503
2017-09-08T18:30:35.872Z,99504
2017-09-08T18:33:02.125Z,99505
2017-09-08T18:35:29.402Z,99500
2017-09-08T18:37:55.637Z,99496
2017-09-08T18:40:21.882Z,99492
2017-09-08T18:42:48.107Z,99494
2017-09-08T18:45:14.340Z,99491
2017-09-08T18:47:40.578Z,99486
2017-09-08T18:50:07.572Z,99485
2017-09-08T18:52:33.824Z,99489
2017-09-08T18:55:00.098Z,99478
2017-09-08T18:57:26.357Z,99482
2017-09-08T18:59:53.327Z,99477
2017-09-08T19:02:19.582Z,99470
2017-09-08T19:04:45.810Z,99476
2017-09-08T19:07:12.204Z,99467
2017-09-08T19:09:38.602Z,99475
2017-09-08T19:12:05.578Z,99473
2017-09-08T19:14:31.815Z,99467
2017-09-08T19:16:58.051Z,99463
2017-09-08T19:19:24.291Z,99457
2017-09-08T19:21:50.509Z,99456
2017-09-08T19:24:16.972Z,99461
2017-09-08T19:26:43.226Z,99454
2017-09-08T19:29:10.198Z,99451
2017-09-08T19:31:36.680Z,99450
2017-09-08T19:34:03.665Z,99443
2017-09-08T19:36:30.641Z,99441
2017-09-08T19:38:56.963Z,99435
2017-09-08T19:41:23.206Z,99430
2017-09-08T19:43:49.458Z,99429
2017-09-08T19:46:15.713Z,99428
2017-09-08T19:48:42.712Z,99432
2017-09-08T19:51:08.939Z,99423
2017-09-08T19:53:35.310Z,99430
2017-09-08T19:56:01.556Z,99433
2017-09-08T19:58:28.536Z,99435
2017-09-08T20:00:54.993Z,99432
2017-09-08T20:03:21.210Z,99434
2017-09-08T20:05:47.435Z,99429
2017-09-08T20:08:14.018Z,99422
2017-09-08T20:10:40.989Z,99413
2017-09-08T20:13:07.202Z,99401
2017-09-08T20:15:34.162Z,99406
2017-09-08T20:18:00.409Z,99414
2017-09-08T20:20:26.646Z,99409
2017-09-08T20:22:52.875Z,99408
2017-09-08T20:25:19.147Z,99412
2017-09-08T20:27:46.122Z,99418
2017-09-08T20:30:12.350Z,99413
2017-09-08T20:32:38.933Z,99406
2017-09-08T20:35:05.158Z,99407
2017-09-08T20:37:31.381Z,99408
2017-09-08T20:39:57.621Z,99403
2017-09-08T20:42:23.845Z,99399
2017-09-08T20:44:50.069Z,99396
2017-09-08T20:47:16.334Z,99395
2017-09-08T20:49:43.298Z,99400
2017-09-08T20:52:09.519Z,99401
2017-09-08T20:54:35.767Z,99399
2017-09-08T20:57:02.022Z,99397
2017-09-08T20:59:28.283Z,99391
2017-09-08T21:01:54.509Z,99387
2017-09-08T21:04:20.736Z,99387
2017-09-08T21:06:47.245Z,99387
2017-09-08T21:09:13.617Z,99379
2017-09-08T21:11:40.610Z,99378
2017-09-08T21:14:06.851Z,99377
2017-09-08T21:16:33.118Z,99384
2017-09-08T21:19:00.080Z,99384
2017-09-08T21:21:26.297Z,99385
2017-09-08T21:23:53.276Z,99382
2017-09-08T21:26:19.516Z,99390
2017-09-08T21:28:45.727Z,99383
2017-09-08T21:31:11.977Z,99378
2017-09-08T21:33:38.194Z,99374
2017-09-08T21:36:04.420Z,99371
2017-09-08T21:38:30.877Z,99371
2017-09-08T21:40:57.103Z,99374
2017-09-08T21:43:23.329Z,99370
2017-09-08T21:45:49.588Z,99368
2017-09-08T21:48:16.555Z,99354
2017-09-08T21:50:42.786Z,99350
2017-09-08T21:53:09.023Z,99350
2017-09-08T21:55:35.239Z,99354
2017-09-08T21:58:01.457Z,99348
2017-09-08T22:00:28.766Z,99346
2017-09-08T22:02:55.013Z,99342
2017-09-08T22:05:21.241Z,99346
2017-09-08T22:07:47.578Z,99341
2017-09-08T22:10:13.802Z,99345
2017-09-08T22:12:40.063Z,99343
2017-09-08T22:15:07.057Z,99335
2017-09-08T22:17:33.269Z,99338
2017-09-08T22:19:59.494Z,99331
2017-09-08T22:22:25.739Z,99336
2017-09-08T22:24:51.973Z,99327
2017-09-08T22:27:18.205Z,99318
2017-09-08T22:29:44.459Z,99325
2017-09-08T22:32:11.446Z,99320
2017-09-08T22:34:37.783Z,99321
2017-09-08T22:37:04.006Z,99316
2017-09-08T22:39:30.218Z,99312
2017-09-08T22:41:56.694Z,99317
2017-09-08T22:44:22.949Z,99315
2017-09-08T22:46:49.166Z,99313
2017-09-08T22:49:15.683Z,99313
2017-09-08T22:51:41.916Z,99314
2017-09-08T22:54:08.159Z,99306
2017-09-08T22:56:34.441Z,99302
2017-09-08T22:59:00.658Z,99296
2017-09-08T23:01:26.886Z,99302
2017-09-08T23:03:53.106Z,99299
2017-09-08T23:06:19.335Z,99304
2017-09-08T23:08:45.808Z,99309
2017-09-08T23:11:12.041Z,99303
2017-09-08T23:13:38.322Z,99301
2017-09-08T23:16:04.585Z,99296
2017-09-08T23:18:30.814Z,99302
2017-09-08T23:20:57.070Z,99298
2017-09-08T23:23:23.320Z,99299
2017-09-08T23:25:49.575Z,99296
2017-09-08T23:28:15.786Z,99302
2017-09-08T23:30:42.078Z,99298
2017-09-08T23:33:08.316Z,99293
2017-09-08T23:35:34.549Z,99296
2017-09-08T23:38:01.692Z,99294
2017-09-08T23:40:27.918Z,99295
2017-09-08T23:42:54.141Z,99285
2017-09-08T23:45:20.385Z,99280
2017-09-08T23:47:46.636Z,99274
2017-09-08T23:50:12.997Z,99273
2017-09-08T23:52:39.220Z,99265
2017-09-08T23:55:05.457Z,99261
2017-09-08T23:57:31.798Z,99255
2017-09-08T23:59:58.007Z,99251
